Time,TemperatureF,DewpointF,PressureIn,WindDirection,WindDirectionDegrees,WindSpeedMPH,WindSpeedGustMPH,Humidity,HourlyPrecipIn,Conditions,Clouds,dailyrainin,SoftwareType,DateUTC
2013-09-23 00:14:00,57.0,53.0,29.95,SE,128,0.0,1.0,87,0.00,,,0.03,,2013-09-23 04:14:00,
2013-09-23 00:24:00,58.0,54.0,29.96,SE,128,0.0,1.0,86,0.00,,,0.01,,2013-09-23 04:24:00,
2013-09-23 00:43:00,58.0,54.0,29.95,SE,128,0.0,1.0,86,0.00,,,0.01,,2013-09-23 04:43:00,
2013-09-23 00:54:00,58.0,54.0,29.96,SE,128,0.0,1.0,86,0.00,,,0.01,,2013-09-23 04:54:00,
2013-09-23 01:12:00,58.0,54.0,29.96,SE,128,0.0,0.0,85,0.00,,,0.01,,2013-09-23 05:12:00,
2013-09-23 01:23:00,57.0,53.0,29.96,SE,129,0.0,1.0,85,0.00,,,0.01,,2013-09-23 05:23:00,
2013-09-23 01:43:00,58.0,53.0,29.96,SE,129,0.0,2.0,84,0.00,,,0.01,,2013-09-23 05:43:00,
2013-09-23 01:53:00,57.0,53.0,29.97,SE,128,0.0,1.0,85,0.00,,,0.01,,2013-09-23 05:53:00,
2013-09-23 02:13:00,57.0,53.0,29.97,SE,128,0.0,0.0,85,0.00,,,0.01,,2013-09-23 06:13:00,
2013-09-23 02:22:00,57.0,53.0,29.97,SE,128,0.0,0.0,85,0.00,,,0.01,,2013-09-23 06:22:00,
2013-09-23 02:52:00,56.0,52.0,29.97,SE,129,0.0,0.0,87,0.00,,,0.01,,2013-09-23 06:52:00,
2013-09-23 03:12:00,55.0,52.0,29.97,SE,128,0.0,0.0,88,0.00,,,0.01,,2013-09-23 07:12:00,
2013-09-23 03:22:00,55.0,52.0,29.96,SE,128,0.0,0.0,88,0.00,,,0.01,,2013-09-23 07:22:00,
2013-09-23 03:42:00,55.0,52.0,29.96,SE,128,0.0,0.0,89,0.00,,,0.01,,2013-09-23 07:42:00,
2013-09-23 03:52:00,54.0,51.0,29.96,SE,129,0.0,1.0,89,0.00,,,0.01,,2013-09-23 07:52:00,
2013-09-23 04:11:00,54.0,51.0,29.97,SE,129,0.0,1.0,90,0.00,,,0.01,,2013-09-23 08:11:00,
2013-09-23 04:23:00,54.0,52.0,29.97,SE,128,0.0,1.0,92,0.00,,,0.01,,2013-09-23 08:23:00,
2013-09-23 04:42:00,53.0,51.0,29.98,SE,129,0.0,0.0,93,0.00,,,0.01,,2013-09-23 08:42:00,
2013-09-23 04:52:00,53.0,51.0,29.98,SE,128,0.0,1.0,94,0.00,,,0.01,,2013-09-23 08:52:00,
2013-09-23 05:11:00,53.0,51.0,29.98,SE,129,0.0,1.0,92,0.00,,,0.01,,2013-09-23 09:11:00,
2013-09-23 05:21:00,53.0,51.0,29.98,SE,128,0.0,1.0,94,0.00,,,0.00,,2013-09-23 09:21:00,
2013-09-23 05:43:00,53.0,51.0,29.99,SE,128,0.0,1.0,94,0.00,,,0.00,,2013-09-23 09:43:00,
2013-09-23 05:53:00,53.0,51.0,29.99,SE,129,0.0,1.0,94,0.00,,,0.00,,2013-09-23 09:53:00,
2013-09-23 06:13:00,52.0,50.0,29.99,SE,128,0.0,1.0,94,0.00,,,0.00,,2013-09-23 10:13:00,
2013-09-23 06:23:00,52.0,50.0,30.00,SE,128,0.0,0.0,93,0.00,,,0.00,,2013-09-23 10:23:00,
2013-09-23 06:33:00,52.0,50.0,30.00,SE,128,0.0,0.0,93,0.00,,,0.00,,2013-09-23 10:33:00,
2013-09-23 06:42:00,52.0,50.0,30.00,SE,128,0.0,0.0,93,0.00,,,0.00,,2013-09-23 10:42:00,
2013-09-23 06:52:00,52.0,50.0,30.00,SE,129,0.0,0.0,93,0.00,,,0.00,,2013-09-23 10:52:00,
2013-09-23 07:12:00,52.0,50.0,30.01,SE,128,0.0,1.0,93,0.00,,,0.00,,2013-09-23 11:12:00,
2013-09-23 07:22:00,52.0,50.0,30.01,SE,128,0.0,0.0,94,0.00,,,0.00,,2013-09-23 11:22:00,
2013-09-23 07:42:00,52.0,50.0,30.02,SE,129,0.0,1.0,93,0.00,,,0.00,,2013-09-23 11:42:00,
2013-09-23 07:52:00,52.0,49.0,30.02,SE,128,0.0,1.0,90,0.00,,,0.00,,2013-09-23 11:52:00,
2013-09-23 08:11:00,53.0,50.0,30.03,SE,128,0.0,0.0,88,0.00,,,0.00,,2013-09-23 12:11:00,
2013-09-23 08:22:00,53.0,50.0,30.04,SE,128,0.0,1.0,90,0.00,,,0.00,,2013-09-23 12:22:00,
2013-09-23 08:32:00,53.0,50.0,30.04,SE,128,0.0,1.0,90,0.00,,,0.00,,2013-09-23 12:32:00,
2013-09-23 08:52:00,53.0,50.0,30.04,SE,129,0.0,1.0,90,0.00,,,0.00,,2013-09-23 12:52:00,
2013-09-23 09:11:00,54.0,51.0,30.04,SE,128,0.0,0.0,90,0.00,,,0.00,,2013-09-23 13:11:00,
2013-09-23 09:22:00,54.0,51.0,30.05,SE,131,0.0,2.0,90,0.00,,,0.00,,2013-09-23 13:22:00,
2013-09-23 09:42:00,55.0,52.0,30.05,SE,131,0.0,2.0,90,0.00,,,0.00,,2013-09-23 13:42:00,
2013-09-23 09:52:00,55.0,52.0,30.06,SE,131,0.0,4.0,88,0.00,,,0.00,,2013-09-23 13:52:00,
2013-09-23 10:12:00,56.0,52.0,30.06,SE,132,0.0,4.0,88,0.00,,,0.00,,2013-09-23 14:12:00,
2013-09-23 10:22:00,57.0,53.0,30.06,SE,132,1.0,4.0,85,0.00,,,0.00,,2013-09-23 14:22:00,
2013-09-23 10:42:00,57.0,53.0,30.06,SE,132,1.0,4.0,86,0.00,,,0.00,,2013-09-23 14:42:00,
2013-09-23 10:52:00,59.0,54.0,30.06,SE,132,1.0,4.0,83,0.00,,,0.00,,2013-09-23 14:52:00,
2013-09-23 11:12:00,57.0,53.0,30.06,SE,134,1.0,3.0,85,0.00,,,0.00,,2013-09-23 15:12:00,
2013-09-23 11:22:00,56.0,52.0,30.06,SE,134,0.0,2.0,88,0.00,,,0.00,,2013-09-23 15:22:00,
2013-09-23 11:43:00,56.0,53.0,30.06,SE,134,0.0,3.0,89,0.00,,,0.00,,2013-09-23 15:43:00,
2013-09-23 11:54:00,56.0,52.0,30.06,SE,134,1.0,3.0,88,0.00,,,0.00,,2013-09-23 15:54:00,
2013-09-23 12:12:00,59.0,55.0,30.06,SE,134,0.0,3.0,87,0.00,,,0.00,,2013-09-23 16:12:00,
2013-09-23 12:24:00,61.0,56.0,30.06,SE,134,1.0,3.0,85,0.00,,,0.00,,2013-09-23 16:24:00,
2013-09-23 12:53:00,64.0,58.0,30.06,SE,135,1.0,5.0,81,0.00,,,0.00,,2013-09-23 16:53:00,
2013-09-23 13:12:00,65.0,58.0,30.06,SE,136,1.0,3.0,77,0.00,,,0.00,,2013-09-23 17:12:00,
2013-09-23 13:24:00,64.0,56.0,30.06,SE,135,1.0,4.0,76,0.00,,,0.00,,2013-09-23 17:24:00,
2013-09-23 13:42:00,63.0,56.0,30.06,SE,136,1.0,3.0,79,0.00,,,0.00,,2013-09-23 17:42:00,
2013-09-23 13:52:00,62.0,56.0,30.06,SE,136,1.0,4.0,81,0.00,,,0.00,,2013-09-23 17:52:00,
2013-09-23 14:13:00,62.0,54.0,30.06,SE,136,0.0,3.0,76,0.00,,,0.00,,2013-09-23 18:13:00,
2013-09-23 14:22:00,62.0,56.0,30.05,SE,136,1.0,3.0,81,0.00,,,0.00,,2013-09-23 18:22:00,
2013-09-23 14:52:00,64.0,56.0,30.05,SE,136,1.0,3.0,75,0.00,,,0.00,,2013-09-23 18:52:00,
2013-09-23 15:12:00,64.0,57.0,30.05,SE,136,0.0,3.0,79,0.00,,,0.00,,2013-09-23 19:12:00,
2013-09-23 15:22:00,65.0,59.0,30.04,SE,136,0.0,2.0,80,0.00,,,0.00,,2013-09-23 19:22:00,
2013-09-23 15:42:00,64.0,57.0,30.04,SE,136,0.0,3.0,78,0.00,,,0.00,,2013-09-23 19:42:00,
2013-09-23 15:53:00,64.0,57.0,30.04,SE,136,0.0,2.0,79,0.00,,,0.00,,2013-09-23 19:53:00,
2013-09-23 16:12:00,64.0,58.0,30.04,SE,136,0.0,2.0,80,0.00,,,0.00,,2013-09-23 20:12:00,
2013-09-23 16:22:00,64.0,57.0,30.03,SE,136,0.0,3.0,78,0.00,,,0.00,,2013-09-23 20:22:00,
2013-09-23 16:52:00,65.0,59.0,30.03,SE,136,0.0,1.0,80,0.00,,,0.00,,2013-09-23 20:52:00,
2013-09-23 17:12:00,65.0,58.0,30.03,SE,136,0.0,1.0,79,0.00,,,0.00,,2013-09-23 21:12:00,
2013-09-23 17:23:00,64.0,58.0,30.03,SE,137,0.0,1.0,80,0.00,,,0.00,,2013-09-23 21:23:00,
2013-09-23 17:44:00,64.0,58.0,30.04,SE,136,0.0,2.0,80,0.00,,,0.00,,2013-09-23 21:44:00,
2013-09-23 17:54:00,63.0,57.0,30.04,SE,136,0.0,1.0,81,0.00,,,0.00,,2013-09-23 21:54:00,
2013-09-23 18:14:00,64.0,58.0,30.04,SE,136,0.0,0.0,82,0.00,,,0.00,,2013-09-23 22:14:00,
2013-09-23 18:24:00,63.0,57.0,30.04,SE,136,0.0,1.0,81,0.00,,,0.00,,2013-09-23 22:24:00,
2013-09-23 18:43:00,63.0,57.0,30.03,SE,136,0.0,1.0,82,0.00,,,0.00,,2013-09-23 22:43:00,
2013-09-23 18:54:00,63.0,57.0,30.04,SE,136,0.0,1.0,82,0.00,,,0.00,,2013-09-23 22:54:00,
2013-09-23 19:12:00,62.0,57.0,30.04,SE,136,0.0,1.0,83,0.00,,,0.00,,2013-09-23 23:12:00,
2013-09-23 19:22:00,61.0,56.0,30.04,SE,136,0.0,0.0,85,0.00,,,0.00,,2013-09-23 23:22:00,
2013-09-23 19:42:00,60.0,56.0,30.04,SE,136,0.0,0.0,87,0.00,,,0.00,,2013-09-23 23:42:00,
2013-09-23 19:53:00,60.0,56.0,30.04,SE,136,0.0,0.0,87,0.00,,,0.00,,2013-09-23 23:53:00,
2013-09-23 20:12:00,58.0,55.0,30.04,SE,136,0.0,0.0,91,0.00,,,0.00,,2013-09-24 00:12:00,
2013-09-23 20:22:00,58.0,56.0,30.04,SE,136,0.0,0.0,92,0.00,,,0.00,,2013-09-24 00:22:00,
2013-09-23 20:43:00,57.0,55.0,30.04,SE,136,0.0,1.0,93,0.00,,,0.00,,2013-09-24 00:43:00,
2013-09-23 20:52:00,57.0,55.0,30.04,SE,136,0.0,0.0,93,0.00,,,0.00,,2013-09-24 00:52:00,
2013-09-23 21:12:00,57.0,55.0,30.05,SE,136,0.0,0.0,94,0.00,,,0.00,,2013-09-24 01:12:00,
2013-09-23 21:22:00,58.0,56.0,30.05,SE,136,0.0,0.0,93,0.00,,,0.00,,2013-09-24 01:22:00,
2013-09-23 21:43:00,58.0,56.0,30.05,SE,136,0.0,0.0,93,0.00,,,0.00,,2013-09-24 01:43:00,
2013-09-23 21:52:00,58.0,56.0,30.05,SE,136,0.0,0.0,92,0.00,,,0.00,,2013-09-24 01:52:00,
2013-09-23 22:12:00,58.0,56.0,30.06,SE,136,0.0,1.0,92,0.00,,,0.00,,2013-09-24 02:12:00,
2013-09-23 22:23:00,58.0,56.0,30.06,SE,136,0.0,1.0,92,0.00,,,0.00,,2013-09-24 02:23:00,
2013-09-23 22:42:00,58.0,56.0,30.06,SE,136,0.0,1.0,92,0.00,,,0.00,,2013-09-24 02:42:00,
2013-09-23 22:52:00,58.0,55.0,30.07,SE,136,0.0,1.0,91,0.00,,,0.00,,2013-09-24 02:52:00,
2013-09-23 23:12:00,58.0,55.0,30.07,SE,136,0.0,1.0,90,0.00,,,0.00,,2013-09-24 03:12:00,
2013-09-23 23:22:00,58.0,55.0,30.08,SE,136,0.0,2.0,90,0.00,,,0.00,,2013-09-24 03:22:00,
2013-09-23 23:44:00,58.0,55.0,30.08,SE,136,0.0,1.0,90,0.00,,,0.00,,2013-09-24 03:44:00,
2013-09-23 23:54:00,58.0,55.0,30.08,SE,136,0.0,0.0,90,0.00,,,0.00,,2013-09-24 03:54:00,